Time;durP1;ratioP1;P1;durP2;ratioP2;P2;SDS_P1;SDS_P2;PMS_P1;PMS_P2;Temp;Humidity;BMP_temperature;BMP_pressure;BME280_temperature;BME280_humidity;BME280_pressure;Samples;Min_cycle;Max_cycle;Signal;HPM_P1;HPM_P2
2022/03/30 00:02:11;;;;;;;14.43;10.30;;;13.90;84.60;;;;;;5055690;28;20178;-62
2022/03/30 00:04:38;;;;;;;12.03;10.73;;;13.80;85.20;;;;;;5055206;28;20182;-60
2022/03/30 00:07:04;;;;;;;13.53;9.90;;;16.20;87.40;;;;;;5056040;28;20211;-62
2022/03/30 00:09:32;;;;;;;12.53;9.80;;;13.80;85.00;;;;;;5047594;28;20206;-60
2022/03/30 00:11:58;;;;;;;13.30;10.70;;;13.80;85.00;;;;;;5036531;28;20168;-60
2022/03/30 00:14:23;;;;;;;13.47;10.23;;;13.80;85.30;;;;;;5043638;28;20256;-62
2022/03/30 00:16:51;;;;;;;13.10;10.50;;;13.80;85.30;;;;;;5044737;28;20222;-62
2022/03/30 00:19:17;;;;;;;12.23;10.00;;;13.80;85.10;;;;;;5046534;28;20655;-61
2022/03/30 00:21:42;;;;;;;12.40;10.50;;;13.80;85.30;;;;;;5046405;28;20180;-60
2022/03/30 00:24:08;;;;;;;11.27;9.97;;;13.90;85.50;;;;;;5050435;28;20182;-61
2022/03/30 00:26:34;;;;;;;13.23;9.90;;;14.10;85.80;;;;;;5039100;28;20269;-62
2022/03/30 00:28:59;;;;;;;12.30;9.93;;;13.90;85.60;;;;;;5055558;28;20183;-62
2022/03/30 00:31:25;;;;;;;10.63;9.47;;;13.90;84.90;;;;;;5055721;28;20238;-60
2022/03/30 00:33:52;;;;;;;11.43;10.20;;;13.90;84.60;;;;;;5055725;28;20664;-62
2022/03/30 00:36:18;;;;;;;11.13;9.00;;;13.90;84.10;;;;;;5055955;28;20211;-60
2022/03/30 00:38:44;;;;;;;12.37;9.30;;;13.90;83.80;;;;;;5053640;28;20168;-60
2022/03/30 00:41:09;;;;;;;12.87;10.27;;;13.90;83.70;;;;;;5033575;28;20164;-60
2022/03/30 00:43:35;;;;;;;12.60;9.50;;;13.90;83.60;;;;;;5047325;28;20232;-60
2022/03/30 00:46:01;;;;;;;13.90;9.90;;;13.90;84.30;;;;;;5053136;28;20199;-63
2022/03/30 00:48:27;;;;;;;14.20;10.50;;;14.10;84.70;;;;;;5049777;28;20176;-63
2022/03/30 00:50:53;;;;;;;11.90;9.93;;;13.80;84.30;;;;;;5048620;28;20180;-61
2022/03/30 00:53:18;;;;;;;11.03;9.80;;;13.80;84.50;;;;;;5040013;28;20214;-60
2022/03/30 00:55:44;;;;;;;13.33;10.30;;;13.80;85.10;;;;;;5035194;28;20203;-60
2022/03/30 00:58:09;;;;;;;12.93;9.33;;;13.70;85.30;;;;;;5033480;28;20172;-60
2022/03/30 01:00:35;;;;;;;11.70;9.77;;;13.70;85.70;;;;;;5033861;28;20164;-60
2022/03/30 01:03:01;;;;;;;11.03;9.77;;;13.70;86.00;;;;;;5033223;28;20186;-60
2022/03/30 01:05:27;;;;;;;10.53;9.10;;;13.60;86.20;;;;;;5033678;28;20229;-60
2022/03/30 01:07:57;;;;;;;11.20;9.97;;;13.70;86.20;;;;;;5032406;28;20577;-61
2022/03/30 01:10:23;;;;;;;11.57;10.00;;;13.70;86.40;;;;;;5034051;28;20168;-62
2022/03/30 01:12:52;;;;;;;11.73;10.00;;;13.70;86.90;;;;;;5033501;28;20645;-60
2022/03/30 01:15:18;;;;;;;11.67;10.13;;;13.60;87.30;;;;;;5033333;28;20672;-60
2022/03/30 01:17:44;;;;;;;12.17;9.87;;;13.90;87.70;;;;;;5033510;28;20567;-61
2022/03/30 01:20:12;;;;;;;10.80;9.70;;;13.70;87.50;;;;;;5033709;28;20183;-59
2022/03/30 01:22:38;;;;;;;13.80;10.37;;;13.70;87.80;;;;;;5033017;28;20537;-62
2022/03/30 01:25:04;;;;;;;14.57;10.03;;;13.70;88.80;;;;;;5033441;28;20673;-59
2022/03/30 01:27:30;;;;;;;13.80;9.60;;;13.60;88.60;;;;;;5033149;28;20273;-61
2022/03/30 01:32:41;;;;;;;14.70;9.20;;;13.50;88.30;;;;;;5032875;28;20663;-59
2022/03/30 01:35:07;;;;;;;11.60;9.77;;;13.60;88.10;;;;;;5033100;28;20203;-62
2022/03/30 01:37:33;;;;;;;13.20;9.73;;;13.60;88.00;;;;;;5033294;28;20183;-59
2022/03/30 01:40:01;;;;;;;10.40;9.30;;;13.60;87.90;;;;;;5033236;28;20267;-60
2022/03/30 01:42:28;;;;;;;10.37;9.27;;;13.60;87.50;;;;;;5033838;28;20230;-57
2022/03/30 01:44:54;;;;;;;12.83;9.50;;;13.60;87.70;;;;;;5031656;28;20607;-61
2022/03/30 01:47:20;;;;;;;13.73;9.60;;;13.70;88.40;;;;;;5031666;28;20691;-59
2022/03/30 01:49:46;;;;;;;11.83;8.63;;;13.70;88.10;;;;;;5048523;28;20178;-56
2022/03/30 01:52:14;;;;;;;12.50;9.47;;;13.70;88.10;;;;;;5050758;28;20189;-59
2022/03/30 01:54:40;;;;;;;10.63;9.27;;;13.70;88.10;;;;;;5051434;28;20206;-57
2022/03/30 01:57:06;;;;;;;11.23;9.27;;;13.70;88.10;;;;;;5051728;28;20191;-59
2022/03/30 01:59:33;;;;;;;12.97;9.70;;;13.60;88.50;;;;;;5051596;28;20181;-60
2022/03/30 02:01:59;;;;;;;12.50;9.90;;;13.70;89.00;;;;;;5051460;28;20163;-59
2022/03/30 02:04:24;;;;;;;10.67;9.23;;;13.60;89.10;;;;;;5051429;28;20182;-61
2022/03/30 02:06:50;;;;;;;12.23;10.00;;;13.60;89.60;;;;;;5051602;28;20278;-58
2022/03/30 02:09:15;;;;;;;12.73;10.27;;;13.60;90.10;;;;;;5051619;28;20178;-59
2022/03/30 02:11:41;;;;;;;12.43;9.50;;;13.50;90.10;;;;;;5051431;28;20171;-60
2022/03/30 02:14:07;;;;;;;13.37;10.17;;;13.50;90.30;;;;;;5050959;28;20191;-60
2022/03/30 02:16:32;;;;;;;13.10;10.37;;;13.50;90.40;;;;;;5051315;28;20183;-59
2022/03/30 02:18:58;;;;;;;12.27;10.93;;;13.50;90.50;;;;;;5051539;28;20179;-60
2022/03/30 02:21:24;;;;;;;12.77;10.50;;;13.30;91.10;;;;;;5051109;28;20644;-60
2022/03/30 02:23:51;;;;;;;11.63;10.13;;;13.20;91.20;;;;;;5050945;28;20228;-61
2022/03/30 02:26:17;;;;;;;13.80;10.33;;;13.20;91.20;;;;;;5051232;28;20202;-61
2022/03/30 02:28:50;;;;;;;12.83;10.13;;;13.20;91.20;;;;;;5051175;28;20175;-60
2022/03/30 02:31:22;;;;;;;12.57;10.57;;;13.10;92.80;;;;;;5051362;28;20201;-60
2022/03/30 02:33:48;;;;;;;13.23;10.10;;;12.90;93.90;;;;;;5051122;28;20206;-61
2022/03/30 02:36:14;;;;;;;13.20;10.20;;;12.80;94.00;;;;;;5051299;28;20664;-61
2022/03/30 02:38:41;;;;;;;14.53;11.03;;;12.70;94.20;;;;;;5051275;28;20179;-61
2022/03/30 02:41:08;;;;;;;11.60;10.20;;;12.80;94.30;;;;;;5053246;28;20690;-60
2022/03/30 02:43:34;;;;;;;14.47;10.27;;;12.90;94.00;;;;;;5054789;28;20171;-58
2022/03/30 02:46:00;;;;;;;14.07;10.60;;;12.90;94.10;;;;;;5055035;28;20223;-58
2022/03/30 02:48:28;;;;;;;13.93;10.27;;;12.90;94.00;;;;;;5055066;28;20293;-61
2022/03/30 02:50:59;;;;;;;13.40;10.13;;;13.00;94.30;;;;;;5055181;28;20545;-59
2022/03/30 02:53:26;;;;;;;16.30;11.63;;;12.90;94.70;;;;;;5054425;28;20204;-58
2022/03/30 02:55:52;;;;;;;13.77;11.30;;;12.80;95.40;;;;;;5054814;28;20274;-59
2022/03/30 02:58:19;;;;;;;13.57;11.27;;;12.80;96.10;;;;;;5054704;28;20250;-58
2022/03/30 03:00:45;;;;;;;17.80;11.10;;;12.80;96.40;;;;;;5054767;28;20174;-57
2022/03/30 03:03:11;;;;;;;14.57;11.00;;;12.80;97.50;;;;;;5054329;28;20163;-59
2022/03/30 03:05:38;;;;;;;14.43;11.53;;;12.70;97.90;;;;;;5054653;28;20741;-58
2022/03/30 03:08:08;;;;;;;14.03;11.87;;;12.60;98.20;;;;;;5054681;28;20672;-60
2022/03/30 03:10:36;;;;;;;13.20;11.03;;;15.40;99.90;;;;;;5054474;28;20201;-58
2022/03/30 03:13:06;;;;;;;14.63;11.77;;;12.70;99.90;;;;;;5054290;28;20687;-58
2022/03/30 03:15:33;;;;;;;12.17;10.97;;;12.70;99.90;;;;;;5054389;28;20206;-58
2022/03/30 03:18:00;;;;;;;13.37;10.70;;;12.70;99.90;;;;;;5053102;28;20178;-58
2022/03/30 03:20:25;;;;;;;13.70;11.27;;;12.70;99.90;;;;;;5054316;28;20199;-58
2022/03/30 03:22:51;;;;;;;14.03;11.43;;;12.70;99.90;;;;;;5054195;28;20649;-57
2022/03/30 03:25:17;;;;;;;12.77;10.77;;;12.40;99.90;;;;;;5054144;28;20167;-60
2022/03/30 03:27:43;;;;;;;13.53;11.60;;;12.70;99.90;;;;;;5054489;28;20183;-60
2022/03/30 03:30:09;;;;;;;13.63;11.73;;;12.70;99.90;;;;;;5054115;28;20261;-56
2022/03/30 03:32:35;;;;;;;14.23;11.83;;;12.70;99.90;;;;;;5053438;28;20172;-59
2022/03/30 03:35:01;;;;;;;14.07;12.00;;;12.70;99.90;;;;;;5051828;28;20206;-57
2022/03/30 03:37:26;;;;;;;13.87;11.80;;;12.80;99.90;;;;;;5053990;28;20195;-57
2022/03/30 03:39:52;;;;;;;15.33;11.50;;;12.80;99.90;;;;;;5054098;28;20651;-59
2022/03/30 03:42:17;;;;;;;12.77;10.93;;;12.80;99.90;;;;;;5053636;28;20175;-57
2022/03/30 03:44:43;;;;;;;14.47;11.57;;;12.80;99.90;;;;;;5054069;28;20206;-59
2022/03/30 03:47:09;;;;;;;15.03;11.47;;;12.80;99.90;;;;;;5053665;28;20205;-58
2022/03/30 03:49:39;;;;;;;14.13;11.43;;;12.70;99.90;;;;;;5053918;28;20183;-57
2022/03/30 03:52:06;;;;;;;13.43;10.83;;;12.70;99.90;;;;;;5053564;28;20179;-59
2022/03/30 03:54:31;;;;;;;15.00;12.63;;;12.70;99.90;;;;;;5053371;28;20217;-61
2022/03/30 03:56:57;;;;;;;17.37;14.07;;;12.60;99.90;;;;;;5053584;28;20563;-60
2022/03/30 03:59:23;;;;;;;16.73;12.47;;;12.40;99.90;;;;;;5053742;28;20544;-58
2022/03/30 04:01:49;;;;;;;13.90;12.37;;;12.40;99.90;;;;;;5053481;28;20171;-58
2022/03/30 04:04:15;;;;;;;14.30;11.17;;;12.30;99.90;;;;;;5053313;28;20250;-60
2022/03/30 04:06:41;;;;;;;15.20;12.43;;;12.40;99.90;;;;;;5053397;28;20651;-58
2022/03/30 04:09:06;;;;;;;15.10;12.13;;;12.40;99.90;;;;;;5053714;28;20171;-59
2022/03/30 04:11:32;;;;;;;15.53;12.13;;;12.40;99.90;;;;;;5053374;28;20179;-59
2022/03/30 04:13:57;;;;;;;14.03;11.77;;;12.40;99.90;;;;;;5052974;28;20599;-57
2022/03/30 04:16:23;;;;;;;14.90;11.77;;;12.40;99.90;;;;;;5053200;28;20198;-57
2022/03/30 04:18:48;;;;;;;14.87;11.37;;;12.40;99.90;;;;;;5053196;28;20171;-60
2022/03/30 04:21:14;;;;;;;12.70;11.33;;;12.40;99.90;;;;;;5052028;28;20198;-57
2022/03/30 04:23:40;;;;;;;15.23;12.03;;;12.40;99.90;;;;;;5053071;28;20182;-57
2022/03/30 04:26:05;;;;;;;16.80;12.97;;;12.40;99.90;;;;;;5053238;28;20199;-57
2022/03/30 04:28:31;;;;;;;14.67;12.67;;;12.40;99.90;;;;;;5053052;28;20182;-61
2022/03/30 04:30:57;;;;;;;15.10;12.97;;;12.40;99.90;;;;;;5053100;28;20171;-59
2022/03/30 04:33:22;;;;;;;14.90;13.27;;;12.50;99.90;;;;;;5052574;28;20663;-59
2022/03/30 04:35:48;;;;;;;15.10;13.37;;;12.50;99.90;;;;;;5052875;28;20206;-58
2022/03/30 04:38:14;;;;;;;15.53;12.63;;;12.60;99.90;;;;;;5052925;28;20174;-59
2022/03/30 04:40:40;;;;;;;14.70;12.90;;;12.60;99.90;;;;;;5052701;28;20167;-58
2022/03/30 04:43:06;;;;;;;15.70;12.77;;;12.50;99.90;;;;;;5052477;28;20189;-58
2022/03/30 04:45:32;;;;;;;15.47;11.90;;;12.60;99.90;;;;;;5052518;28;20195;-56
2022/03/30 04:47:58;;;;;;;13.60;12.20;;;12.50;99.90;;;;;;5052584;28;20171;-59
2022/03/30 04:50:24;;;;;;;14.77;12.97;;;12.50;99.90;;;;;;5052311;28;20179;-59
2022/03/30 04:52:51;;;;;;;19.13;13.77;;;12.50;99.90;;;;;;5052246;28;20543;-59
2022/03/30 04:55:16;;;;;;;15.20;12.93;;;12.20;99.90;;;;;;5052115;28;20286;-59
2022/03/30 04:57:42;;;;;;;15.57;12.47;;;12.50;99.90;;;;;;5052534;28;20263;-60
2022/03/30 05:00:10;;;;;;;15.30;12.27;;;12.50;99.90;;;;;;5052399;28;20163;-58
2022/03/30 05:02:37;;;;;;;17.30;13.90;;;12.50;99.90;;;;;;5051807;28;20181;-61
2022/03/30 05:05:04;;;;;;;18.07;14.83;;;12.50;99.90;;;;;;5051520;28;20171;-61
2022/03/30 05:07:30;;;;;;;16.33;14.63;;;12.50;99.90;;;;;;5052278;28;20191;-61
2022/03/30 05:09:57;;;;;;;15.83;14.13;;;12.50;99.90;;;;;;5052264;28;20171;-61
2022/03/30 05:12:23;;;;;;;16.43;13.33;;;12.50;99.90;;;;;;5052190;28;20171;-60
2022/03/30 05:14:49;;;;;;;18.87;14.50;;;12.50;99.90;;;;;;5051038;28;20290;-60
2022/03/30 05:17:15;;;;;;;16.97;13.77;;;12.50;99.90;;;;;;5052035;28;20278;-59
2022/03/30 05:19:40;;;;;;;14.67;12.50;;;12.50;99.90;;;;;;5052421;28;20214;-58
2022/03/30 05:22:06;;;;;;;17.10;13.33;;;12.50;99.90;;;;;;5049219;28;20586;-61
2022/03/30 05:24:32;;;;;;;18.63;14.53;;;12.50;99.90;;;;;;5047470;28;20212;-58
2022/03/30 05:26:57;;;;;;;19.63;15.10;;;12.50;99.90;;;;;;5051253;28;20240;-61
2022/03/30 05:29:23;;;;;;;18.27;15.60;;;12.50;99.90;;;;;;5044464;28;20607;-61
2022/03/30 05:31:49;;;;;;;15.80;13.83;;;12.40;99.90;;;;;;5049437;28;20262;-61
2022/03/30 05:34:15;;;;;;;14.90;13.30;;;12.30;99.90;;;;;;5043267;28;20194;-59
2022/03/30 05:36:40;;;;;;;18.37;13.70;;;14.90;99.90;;;;;;5051580;28;20668;-59
2022/03/30 05:39:06;;;;;;;15.60;13.70;;;12.40;99.90;;;;;;5051803;28;20517;-60
2022/03/30 05:41:33;;;;;;;18.50;13.50;;;12.40;99.90;;;;;;5051932;28;20171;-56
2022/03/30 05:43:59;;;;;;;16.17;14.23;;;12.40;99.90;;;;;;5051297;28;20177;-60
2022/03/30 05:46:24;;;;;;;15.73;13.30;;;12.40;99.90;;;;;;5049787;28;20278;-56
2022/03/30 05:48:50;;;;;;;16.27;12.87;;;12.30;99.90;;;;;;5050215;28;20190;-60
2022/03/30 05:51:15;;;;;;;15.80;13.30;;;12.30;99.90;;;;;;5050694;28;20171;-59
2022/03/30 05:53:41;;;;;;;16.10;12.87;;;12.30;99.90;;;;;;5050937;28;20238;-61
2022/03/30 05:56:07;;;;;;;15.87;13.30;;;12.50;99.90;;;;;;5050909;28;20757;-59
2022/03/30 05:58:32;;;;;;;16.80;12.93;;;12.30;99.90;;;;;;5048732;28;20189;-58
2022/03/30 06:00:58;;;;;;;20.17;13.40;;;14.00;99.90;;;;;;5034392;28;20179;-56
2022/03/30 06:03:23;;;;;;;15.63;12.93;;;12.30;99.90;;;;;;5046663;28;20232;-55
2022/03/30 06:05:50;;;;;;;15.40;12.70;;;12.50;99.90;;;;;;5050655;28;20190;-61
2022/03/30 06:08:17;;;;;;;16.00;13.67;;;12.20;99.90;;;;;;5044451;28;20176;-59
2022/03/30 06:10:42;;;;;;;15.67;12.93;;;13.00;99.90;;;;;;5043214;28;20194;-61
2022/03/30 06:13:08;;;;;;;15.00;12.73;;;12.40;99.90;;;;;;5029711;28;20556;-62
2022/03/30 06:15:34;;;;;;;16.60;12.00;;;12.30;99.90;;;;;;5040056;28;20380;-61
2022/03/30 06:18:00;;;;;;;17.13;12.73;;;12.50;99.90;;;;;;5055972;28;20171;-60
2022/03/30 06:20:26;;;;;;;19.33;13.33;;;12.60;99.90;;;;;;5060004;28;20559;-62
2022/03/30 06:22:53;;;;;;;17.33;14.03;;;12.60;99.90;;;;;;5062717;28;20172;-59
2022/03/30 06:25:24;;;;;;;15.57;13.00;;;12.90;99.90;;;;;;5059844;28;20197;-61
2022/03/30 06:27:50;;;;;;;15.70;13.20;;;12.60;99.90;;;;;;5063703;28;20544;-57
2022/03/30 06:30:16;;;;;;;17.57;13.43;;;12.00;99.90;;;;;;5046793;28;20186;-58
2022/03/30 06:32:42;;;;;;;15.43;13.80;;;12.20;99.90;;;;;;5054948;28;20175;-58
2022/03/30 06:35:08;;;;;;;18.43;13.13;;;11.90;99.90;;;;;;5054906;28;20703;-57
2022/03/30 06:37:33;;;;;;;21.00;13.23;;;12.30;99.90;;;;;;5054186;28;20199;-56
2022/03/30 06:39:59;;;;;;;16.97;14.13;;;;;;;;;;5054716;28;20255;-57
2022/03/30 06:42:25;;;;;;;19.03;14.17;;;12.40;99.90;;;;;;5054726;28;20833;-56
2022/03/30 06:44:50;;;;;;;16.97;13.17;;;12.40;99.90;;;;;;5054898;28;20171;-57
2022/03/30 06:47:16;;;;;;;16.83;13.20;;;12.50;99.90;;;;;;5054556;28;20199;-59
2022/03/30 06:49:42;;;;;;;16.60;13.30;;;;;;;;;;5054909;28;20178;-58
2022/03/30 06:52:09;;;;;;;16.30;13.13;;;12.90;99.90;;;;;;5050073;28;20651;-57
2022/03/30 06:54:37;;;;;;;17.43;13.53;;;13.10;99.90;;;;;;5051214;28;20268;-57
2022/03/30 06:57:04;;;;;;;16.80;13.33;;;12.90;99.90;;;;;;5053876;28;20192;-57
2022/03/30 06:59:29;;;;;;;16.77;13.10;;;13.50;99.90;;;;;;5054431;28;20171;-54
2022/03/30 07:01:56;;;;;;;15.43;12.47;;;13.10;99.90;;;;;;5054207;28;20250;-56
2022/03/30 07:04:22;;;;;;;14.87;12.47;;;12.80;99.90;;;;;;5054228;28;20186;-60
2022/03/30 07:12:16;;;;;;;16.23;12.47;;;12.80;99.90;;;;;;5054360;28;20254;-55
2022/03/30 07:14:42;;;;;;;15.37;12.13;;;;;;;;;;5054184;28;20723;-60
2022/03/30 07:17:07;;;;;;;15.67;12.60;;;13.20;99.90;;;;;;5054395;28;20608;-58
2022/03/30 07:19:33;;;;;;;16.30;12.83;;;13.10;99.90;;;;;;5052635;28;20183;-56
2022/03/30 07:21:59;;;;;;;15.43;12.23;;;;;;;;;;5054226;28;20225;-57
2022/03/30 07:24:24;;;;;;;14.93;12.37;;;13.60;99.90;;;;;;5053872;28;20237;-60
2022/03/30 07:26:50;;;;;;;14.87;12.10;;;;;;;;;;5053367;28;20213;-60
2022/03/30 07:29:17;;;;;;;16.20;11.47;;;13.50;99.90;;;;;;5052320;28;20202;-58
2022/03/30 07:31:43;;;;;;;17.33;11.90;;;13.20;99.90;;;;;;5042407;28;20187;-60
2022/03/30 07:34:09;;;;;;;17.07;12.00;;;13.60;99.90;;;;;;5043925;28;20205;-60
2022/03/30 07:36:34;;;;;;;14.17;12.37;;;13.50;99.90;;;;;;5043528;28;20675;-60
2022/03/30 07:39:00;;;;;;;17.13;13.10;;;13.50;99.90;;;;;;5042456;28;20180;-59
2022/03/30 07:41:26;;;;;;;13.37;11.50;;;13.60;99.90;;;;;;5044528;28;20167;-60
2022/03/30 07:43:51;;;;;;;14.77;11.80;;;;;;;;;;5041610;28;20176;-61
2022/03/30 07:46:18;;;;;;;14.93;12.30;;;;;;;;;;5042132;28;20199;-57
2022/03/30 07:48:44;;;;;;;13.53;12.13;;;;;;;;;;5043721;28;20168;-60
2022/03/30 07:51:09;;;;;;;17.00;12.63;;;13.30;99.90;;;;;;5050925;28;20190;-60
2022/03/30 07:53:35;;;;;;;16.80;12.83;;;13.10;99.90;;;;;;5052828;28;20668;-57
2022/03/30 07:56:01;;;;;;;16.83;12.43;;;;;;;;;;5053577;28;20191;-56
2022/03/30 07:58:27;;;;;;;16.67;12.90;;;;;;;;;;5047467;28;20212;-59
2022/03/30 08:00:53;;;;;;;16.33;12.13;;;;;;;;;;5042396;28;20172;-53
2022/03/30 08:03:19;;;;;;;17.30;12.30;;;;;;;;;;5047177;28;20171;-60
2022/03/30 08:05:44;;;;;;;16.73;12.53;;;13.70;99.90;;;;;;5041659;28;20611;-60
2022/03/30 08:08:10;;;;;;;15.77;12.40;;;13.90;99.90;;;;;;5043429;28;20796;-60
2022/03/30 08:10:37;;;;;;;16.40;12.37;;;13.90;99.90;;;;;;5037781;28;20564;-61
2022/03/30 08:13:03;;;;;;;19.20;12.60;;;;;;;;;;5032251;28;20238;-63
2022/03/30 08:15:30;;;;;;;22.07;12.73;;;13.50;99.90;;;;;;5038119;28;20222;-61
2022/03/30 08:17:56;;;;;;;16.83;13.33;;;;;;;;;;5040233;28;20187;-61
2022/03/30 08:23:08;;;;;;;16.33;13.17;;;13.50;99.90;;;;;;5050578;28;20202;-60
2022/03/30 08:25:34;;;;;;;15.27;11.57;;;13.80;99.90;;;;;;5049603;28;20199;-59
2022/03/30 08:28:00;;;;;;;16.07;13.00;;;13.80;99.90;;;;;;5051796;28;20180;-60
2022/03/30 08:30:26;;;;;;;15.47;11.63;;;14.20;99.90;;;;;;5054640;28;20637;-55
2022/03/30 08:32:52;;;;;;;16.47;13.00;;;;;;;;;;5053214;28;20175;-60
2022/03/30 08:35:18;;;;;;;16.00;12.50;;;14.50;99.90;;;;;;5049761;28;20203;-57
2022/03/30 08:37:44;;;;;;;15.90;12.27;;;14.20;99.90;;;;;;5042978;28;20256;-56
2022/03/30 08:40:09;;;;;;;16.50;12.83;;;14.50;99.90;;;;;;5049325;28;20192;-57
2022/03/30 08:42:36;;;;;;;17.67;12.90;;;14.40;99.90;;;;;;5042174;28;20216;-57
2022/03/30 08:45:04;;;;;;;16.63;12.40;;;14.30;99.90;;;;;;5052547;28;20182;-60
2022/03/30 08:47:29;;;;;;;17.10;13.37;;;;;;;;;;5051967;28;20325;-58
2022/03/30 08:49:55;;;;;;;17.10;13.63;;;14.40;99.90;;;;;;5050608;28;20660;-60
2022/03/30 08:52:20;;;;;;;15.47;13.47;;;14.70;99.90;;;;;;5052233;28;20189;-57
2022/03/30 08:54:50;;;;;;;17.40;15.33;;;14.30;99.90;;;;;;5051987;28;20213;-58
2022/03/30 08:57:15;;;;;;;19.67;15.63;;;14.30;99.90;;;;;;5052532;28;20230;-57
2022/03/30 09:00:20;;;;;;;17.83;13.90;;;14.50;99.90;;;;;;5052290;28;20186;-57
2022/03/30 09:02:55;;;;;;;17.20;12.40;;;14.70;99.90;;;;;;5029875;28;20269;-59
2022/03/30 09:05:24;;;;;;;16.73;15.00;;;15.20;99.90;;;;;;5029990;28;20275;-57
2022/03/30 09:07:54;;;;;;;19.20;14.60;;;14.80;99.90;;;;;;5029970;28;20198;-58
2022/03/30 09:10:22;;;;;;;19.87;14.70;;;14.70;99.90;;;;;;5029845;28;20184;-60
2022/03/30 09:12:50;;;;;;;18.57;14.70;;;14.50;99.90;;;;;;5029830;28;20187;-58
2022/03/30 09:15:17;;;;;;;19.13;14.33;;;14.20;99.90;;;;;;5029857;28;20213;-56
2022/03/30 09:17:44;;;;;;;18.57;14.23;;;14.40;99.00;;;;;;5020909;28;20204;-61
2022/03/30 09:20:19;;;;;;;18.63;14.60;;;14.50;99.90;;;;;;5018299;28;20198;-56
2022/03/30 09:22:47;;;;;;;20.00;14.80;;;14.20;99.90;;;;;;5016707;28;20252;-58
2022/03/30 09:25:13;;;;;;;16.97;14.90;;;14.50;99.90;;;;;;5020447;28;20529;-59
2022/03/30 09:27:41;;;;;;;17.33;13.93;;;14.30;99.90;;;;;;5021735;28;20571;-57
2022/03/30 09:30:12;;;;;;;17.30;14.23;;;14.70;99.90;;;;;;5020444;28;20188;-61
2022/03/30 09:32:43;;;;;;;18.87;14.20;;;14.40;99.90;;;;;;5019339;28;20206;-61
2022/03/30 09:35:38;;;;;;;16.37;14.27;;;14.50;99.90;;;;;;5041447;28;20679;-59
2022/03/30 09:38:15;;;;;;;15.37;13.77;;;15.00;99.90;;;;;;5040253;28;20184;-60
2022/03/30 09:40:47;;;;;;;16.33;14.43;;;14.90;99.80;;;;;;5041591;28;20189;-62
2022/03/30 09:43:17;;;;;;;15.80;14.07;;;15.30;98.80;;;;;;5044263;28;20181;-61
2022/03/30 09:45:44;;;;;;;15.00;13.40;;;15.70;99.00;;;;;;5042172;28;20211;-62
2022/03/30 09:48:49;;;;;;;16.30;13.10;;;15.20;99.90;;;;;;5043423;28;20240;-59
2022/03/30 09:51:15;;;;;;;17.57;13.20;;;15.40;99.90;;;;;;5044852;28;20168;-59
2022/03/30 09:53:43;;;;;;;19.30;12.63;;;15.90;99.90;;;;;;5039711;28;20203;-60
2022/03/30 09:56:18;;;;;;;22.70;13.53;;;15.90;99.00;;;;;;5038459;28;20192;-59
2022/03/30 09:58:45;;;;;;;17.53;12.87;;;16.00;96.30;;;;;;5046847;28;20174;-61
2022/03/30 10:01:17;;;;;;;18.27;13.40;;;15.80;99.00;;;;;;5046252;28;20214;-60
2022/03/30 10:03:50;;;;;;;18.73;13.27;;;15.40;99.80;;;;;;5040030;28;20176;-58
2022/03/30 10:06:19;;;;;;;18.43;14.37;;;15.10;98.80;;;;;;5040158;28;20684;-60
2022/03/30 10:08:46;;;;;;;16.77;13.97;;;15.30;99.90;;;;;;5040498;28;20637;-62
2022/03/30 10:11:15;;;;;;;17.53;14.50;;;14.90;99.90;;;;;;5035435;28;20190;-59
2022/03/30 10:13:42;;;;;;;18.63;14.80;;;15.50;99.90;;;;;;5040249;28;20204;-60
2022/03/30 10:16:08;;;;;;;19.07;14.33;;;14.90;99.90;;;;;;5043074;28;20226;-59
2022/03/30 10:18:35;;;;;;;22.20;13.30;;;15.60;99.90;;;;;;5040834;28;20172;-60
2022/03/30 10:21:22;;;;;;;16.00;12.40;;;15.50;99.90;;;;;;5042709;28;20170;-58
2022/03/30 10:24:06;;;;;;;22.47;12.43;;;15.20;99.90;;;;;;5051324;28;20210;-61
2022/03/30 10:26:58;;;;;;;19.07;12.57;;;15.20;99.90;;;;;;5051185;28;20274;-59
2022/03/30 10:29:26;;;;;;;17.80;11.40;;;14.90;99.90;;;;;;5051642;28;20228;-60
2022/03/30 10:32:12;;;;;;;15.60;11.87;;;15.30;99.90;;;;;;5050898;28;20175;-62
2022/03/30 10:35:02;;;;;;;21.40;11.50;;;15.70;99.90;;;;;;5050952;28;20549;-59
2022/03/30 10:37:40;;;;;;;20.17;12.30;;;14.80;99.90;;;;;;5044979;28;20895;-60
2022/03/30 10:40:08;;;;;;;21.07;12.90;;;14.30;99.90;;;;;;5047791;28;20664;-59
2022/03/30 10:42:46;;;;;;;20.63;12.30;;;14.10;99.50;;;;;;5054314;28;20182;-61
2022/03/30 10:45:43;;;;;;;17.27;11.27;;;14.10;99.90;;;;;;5050861;28;20171;-61
2022/03/30 10:48:13;;;;;;;19.03;10.90;;;13.40;99.90;;;;;;5048590;28;20186;-60
2022/03/30 10:51:14;;;;;;;18.37;10.10;;;14.20;99.90;;;;;;5047906;28;20182;-55
2022/03/30 10:53:42;;;;;;;21.13;11.00;;;14.10;99.90;;;;;;5046853;28;20194;-59
2022/03/30 10:56:14;;;;;;;19.37;10.63;;;14.30;99.90;;;;;;5044565;28;20212;-59
2022/03/30 10:59:07;;;;;;;24.27;11.17;;;14.10;99.90;;;;;;5050821;28;20628;-58
2022/03/30 11:01:35;;;;;;;17.60;11.50;;;14.20;99.90;;;;;;5052147;28;20174;-57
2022/03/30 11:04:13;;;;;;;18.17;12.13;;;14.50;99.90;;;;;;5049991;28;20183;-58
2022/03/30 11:06:40;;;;;;;19.93;11.63;;;14.90;99.90;;;;;;5043652;28;20194;-59
2022/03/30 11:09:19;;;;;;;15.20;11.00;;;15.20;99.90;;;;;;5052553;28;20186;-60
2022/03/30 11:11:54;;;;;;;20.40;11.70;;;15.40;99.90;;;;;;5050245;28;20264;-62
2022/03/30 11:14:31;;;;;;;14.90;10.83;;;15.70;99.90;;;;;;5044551;28;20300;-58
2022/03/30 11:17:21;;;;;;;17.93;9.43;;;15.80;99.80;;;;;;5047106;28;20194;-60
2022/03/30 11:19:47;;;;;;;14.53;8.70;;;15.90;99.40;;;;;;5046054;28;20188;-64
2022/03/30 11:22:24;;;;;;;17.70;8.67;;;16.30;99.00;;;;;;5047082;28;20189;-61
2022/03/30 11:25:08;;;;;;;23.27;9.97;;;16.00;98.60;;;;;;5044417;28;20178;-54
2022/03/30 11:27:34;;;;;;;19.63;9.40;;;15.80;97.40;;;;;;5047495;28;20202;-63
2022/03/30 11:30:03;;;;;;;21.40;9.00;;;15.40;99.30;;;;;;5044216;28;20172;-57
2022/03/30 11:32:53;;;;;;;28.90;9.97;;;14.80;99.60;;;;;;5043867;28;20182;-63
2022/03/30 11:35:21;;;;;;;20.97;9.37;;;13.60;99.90;;;;;;5022128;28;20262;-63
2022/03/30 11:38:06;;;;;;;25.37;9.40;;;14.00;99.90;;;;;;5021065;28;20211;-58
2022/03/30 11:40:37;;;;;;;20.97;8.90;;;14.00;99.90;;;;;;5022841;28;20784;-61
2022/03/30 11:43:04;;;;;;;21.67;8.40;;;14.10;99.90;;;;;;5021596;28;20187;-59
2022/03/30 11:45:31;;;;;;;15.10;7.30;;;14.00;99.90;;;;;;5025227;28;20187;-60
2022/03/30 11:47:59;;;;;;;16.93;7.37;;;16.30;99.90;;;;;;5031873;28;20237;-56
2022/03/30 11:50:37;;;;;;;23.40;8.17;;;13.70;99.90;;;;;;5012311;28;20659;-61
2022/03/30 11:53:11;;;;;;;20.57;7.83;;;13.70;99.90;;;;;;5025414;28;20271;-59
2022/03/30 11:55:47;;;;;;;17.03;8.00;;;13.70;99.90;;;;;;5022863;28;20283;-58
2022/03/30 11:58:27;;;;;;;18.60;7.97;;;13.60;99.90;;;;;;5025416;28;20225;-58
2022/03/30 12:00:53;;;;;;;18.53;8.23;;;13.50;99.90;;;;;;5026274;28;20273;-61
2022/03/30 12:03:19;;;;;;;19.77;7.50;;;13.50;99.90;;;;;;5033314;28;20203;-60
2022/03/30 12:05:46;;;;;;;12.37;6.83;;;13.70;99.90;;;;;;5023157;28;20209;-60
2022/03/30 12:08:12;;;;;;;17.13;7.50;;;14.00;99.90;;;;;;5027307;28;20518;-58
2022/03/30 12:10:38;;;;;;;17.40;7.60;;;14.20;99.90;;;;;;5010726;28;20511;-60
2022/03/30 12:13:04;;;;;;;18.80;7.13;;;14.50;99.90;;;;;;5026253;28;20187;-59
2022/03/30 12:15:29;;;;;;;15.30;7.00;;;14.80;99.90;;;;;;5050706;28;20213;-58
2022/03/30 12:17:59;;;;;;;14.13;6.60;;;15.00;99.90;;;;;;5050865;28;20695;-58
2022/03/30 12:20:33;;;;;;;14.40;7.10;;;14.90;99.90;;;;;;5049982;28;20195;-61
2022/03/30 12:23:09;;;;;;;18.97;7.67;;;14.80;99.90;;;;;;5051589;28;20179;-60
2022/03/30 12:25:42;;;;;;;15.57;6.77;;;14.90;99.90;;;;;;5052735;28;20175;-60
2022/03/30 12:28:07;;;;;;;18.67;7.87;;;14.90;99.90;;;;;;5033412;28;20176;-61
2022/03/30 12:30:35;;;;;;;17.93;8.00;;;15.00;99.90;;;;;;5031643;28;20175;-58
2022/03/30 12:33:01;;;;;;;17.30;6.87;;;18.00;99.90;;;;;;5051195;28;20178;-59
2022/03/30 12:35:33;;;;;;;21.27;8.10;;;14.90;99.90;;;;;;5050242;28;20203;-59
2022/03/30 12:38:11;;;;;;;20.27;8.23;;;15.00;99.90;;;;;;5043628;28;20262;-59
2022/03/30 12:40:39;;;;;;;15.67;7.83;;;14.80;99.90;;;;;;5047295;28;20171;-56
2022/03/30 12:43:05;;;;;;;14.70;7.30;;;15.40;99.90;;;;;;5042964;28;20210;-62
2022/03/30 12:45:31;;;;;;;12.47;7.30;;;14.60;99.90;;;;;;5041164;28;20179;-58
2022/03/30 12:47:59;;;;;;;17.50;8.17;;;15.10;99.90;;;;;;5042164;28;20171;-59
2022/03/30 12:50:29;;;;;;;24.27;8.63;;;15.30;99.90;;;;;;5034904;28;20547;-62
2022/03/30 12:53:04;;;;;;;16.23;7.87;;;15.20;99.90;;;;;;5032404;28;20168;-58